Time;durP1;ratioP1;P1;durP2;ratioP2;P2;SDS_P1;SDS_P2;PMS_P1;PMS_P2;Temp;Humidity;BMP_temperature;BMP_pressure;BME280_temperature;BME280_humidity;BME280_pressure;Samples;Min_cycle;Max_cycle;Signal;HPM_P1;HPM_P2
2021/09/08 00:00:15;;;;;;;17.63;8.82;;;19.00;99.90;;;;;;5035103;28;20421;-71
2021/09/08 00:02:40;;;;;;;11.48;7.80;;;19.00;99.90;;;;;;5035762;28;20585;-72
2021/09/08 00:05:08;;;;;;;12.55;8.05;;;19.00;99.90;;;;;;5034950;28;20105;-71
2021/09/08 00:07:34;;;;;;;;;;;19.00;99.90;;;;;;5035659;28;20037;-71
2021/09/08 00:09:59;;;;;;;14.70;8.13;;;19.10;99.90;;;;;;5050229;28;19909;-71
2021/09/08 00:12:25;;;;;;;15.80;8.27;;;19.00;99.90;;;;;;5034779;28;20124;-71
2021/09/08 00:14:51;;;;;;;12.70;8.15;;;19.00;99.90;;;;;;5033193;28;20038;-72
2021/09/08 00:17:16;;;;;;;14.80;8.25;;;19.00;99.90;;;;;;5033241;28;20033;-71
2021/09/08 00:19:42;;;;;;;13.50;7.75;;;19.00;99.90;;;;;;5034265;28;20029;-69
2021/09/08 00:22:07;;;;;;;14.25;8.27;;;19.00;99.90;;;;;;5033739;28;20470;-69
2021/09/08 00:24:33;;;;;;;15.10;8.43;;;19.00;99.90;;;;;;5033037;28;20559;-69
2021/09/08 00:27:03;;;;;;;14.43;8.02;;;19.00;99.90;;;;;;5033960;28;20363;-71
2021/09/08 00:29:29;;;;;;;12.00;8.02;;;19.00;99.90;;;;;;5032118;28;20021;-71
2021/09/08 00:31:55;;;;;;;12.82;7.43;;;19.00;99.90;;;;;;5031039;28;20029;-71
2021/09/08 00:34:20;;;;;;;16.40;7.95;;;19.10;99.90;;;;;;5033379;28;20470;-71
2021/09/08 00:36:46;;;;;;;13.02;8.23;;;19.10;99.90;;;;;;5032760;28;20026;-71
2021/09/08 00:39:11;;;;;;;12.80;7.85;;;19.10;99.90;;;;;;5032957;28;20120;-71
2021/09/08 00:41:37;;;;;;;13.30;8.20;;;19.10;99.90;;;;;;5032737;28;20485;-71
2021/09/08 00:44:11;;;;;;;17.65;7.65;;;19.10;99.90;;;;;;5031831;28;20151;-72
2021/09/08 00:46:40;;;;;;;13.55;7.68;;;19.10;99.90;;;;;;5032700;28;20033;-71
2021/09/08 00:49:05;;;;;;;12.38;7.65;;;19.10;99.90;;;;;;5032953;28;20025;-71
2021/09/08 00:51:32;;;;;;;11.90;8.07;;;19.00;99.90;;;;;;5032241;28;20022;-72
2021/09/08 00:53:59;;;;;;;11.17;6.40;;;19.00;99.90;;;;;;5048207;28;20115;-71
2021/09/08 00:56:28;;;;;;;14.80;7.95;;;19.00;99.90;;;;;;5032341;28;20426;-71
2021/09/08 00:58:55;;;;;;;15.23;8.95;;;18.90;99.90;;;;;;5032801;28;20044;-72
2021/09/08 01:01:20;;;;;;;12.80;8.07;;;18.90;99.90;;;;;;5047578;28;20087;-69
2021/09/08 01:03:47;;;;;;;12.50;8.07;;;18.80;99.90;;;;;;5030139;28;20041;-69
2021/09/08 01:06:13;;;;;;;13.00;8.07;;;18.80;99.90;;;;;;5032646;28;20041;-69
2021/09/08 01:08:39;;;;;;;13.23;7.43;;;18.80;99.90;;;;;;5048116;28;20045;-69
2021/09/08 01:11:05;;;;;;;13.15;7.13;;;18.70;99.90;;;;;;5032250;28;20021;-69
2021/09/08 01:13:32;;;;;;;15.35;8.30;;;18.70;99.90;;;;;;5032986;28;20060;-69
2021/09/08 01:18:45;;;;;;;14.40;8.17;;;18.60;99.90;;;;;;5032991;28;20091;-70
2021/09/08 01:21:11;;;;;;;19.67;8.68;;;18.60;99.90;;;;;;5031886;28;20100;-70
2021/09/08 01:23:36;;;;;;;21.20;8.60;;;18.50;99.90;;;;;;4994378;28;1104271;-70
2021/09/08 01:26:03;;;;;;;19.38;8.80;;;18.60;99.90;;;;;;5032689;28;20389;-70
2021/09/08 01:28:29;;;;;;;15.32;8.18;;;18.50;99.90;;;;;;5032047;28;20025;-71
2021/09/08 01:30:56;;;;;;;15.43;9.00;;;18.50;99.90;;;;;;5032839;28;20481;-70
2021/09/08 01:33:22;;;;;;;17.85;9.38;;;18.50;99.90;;;;;;5033393;28;20055;-70
2021/09/08 01:35:48;;;;;;;13.52;8.10;;;18.40;99.90;;;;;;5031886;28;20087;-70
2021/09/08 01:38:15;;;;;;;13.93;8.60;;;18.40;99.90;;;;;;5033592;28;20065;-70
2021/09/08 01:40:41;;;;;;;10.67;6.83;;;18.40;99.90;;;;;;5032672;28;20030;-70
2021/09/08 01:43:06;;;;;;;14.35;8.85;;;18.30;99.90;;;;;;5048130;28;20371;-70
2021/09/08 01:45:32;;;;;;;16.20;8.43;;;18.30;99.90;;;;;;5032582;28;20107;-70
2021/09/08 01:47:58;;;;;;;12.38;8.15;;;18.30;99.90;;;;;;5032757;28;20498;-70
2021/09/08 01:50:25;;;;;;;13.82;7.82;;;18.20;99.90;;;;;;5033036;28;20036;-70
2021/09/08 01:52:51;;;;;;;14.32;8.65;;;18.20;99.90;;;;;;5033036;28;20452;-70
2021/09/08 01:55:17;;;;;;;15.13;9.35;;;18.20;99.90;;;;;;5032846;28;20040;-71
2021/09/08 01:57:43;;;;;;;19.80;10.05;;;18.20;99.90;;;;;;5029765;28;20030;-70
2021/09/08 02:00:11;;;;;;;14.00;7.75;;;18.20;99.90;;;;;;5031592;28;20047;-70
2021/09/08 02:02:37;;;;;;;13.82;8.27;;;18.10;99.90;;;;;;5032282;28;20026;-70
2021/09/08 02:05:03;;;;;;;15.55;8.45;;;18.10;99.90;;;;;;5029573;28;20037;-71
2021/09/08 02:07:29;;;;;;;16.88;9.40;;;18.10;99.90;;;;;;5032135;28;20037;-71
2021/09/08 02:09:54;;;;;;;16.08;8.15;;;18.00;99.90;;;;;;5032405;28;20040;-70
2021/09/08 02:12:20;;;;;;;13.82;8.20;;;18.00;99.90;;;;;;5030581;28;20041;-70
2021/09/08 02:14:45;;;;;;;18.20;8.13;;;18.00;99.90;;;;;;5032309;28;20041;-71
2021/09/08 02:17:11;;;;;;;18.95;8.40;;;17.90;99.90;;;;;;5032450;28;20520;-70
2021/09/08 02:19:37;;;;;;;17.33;9.02;;;18.00;99.90;;;;;;5032532;28;20045;-70
2021/09/08 02:22:03;;;;;;;14.35;8.23;;;17.90;99.90;;;;;;5032064;28;20112;-70
2021/09/08 02:24:28;;;;;;;13.40;8.48;;;17.90;99.90;;;;;;5032266;28;20056;-71
2021/09/08 02:26:54;;;;;;;15.32;8.40;;;17.90;99.90;;;;;;5032086;28;20029;-70
2021/09/08 02:29:20;;;;;;;16.88;8.57;;;17.80;99.90;;;;;;5032122;28;20087;-70
2021/09/08 02:31:45;;;;;;;15.20;8.45;;;17.80;99.90;;;;;;5031953;28;20022;-70
2021/09/08 02:34:11;;;;;;;15.52;9.85;;;17.80;99.90;;;;;;5032512;28;20025;-70
2021/09/08 02:36:37;;;;;;;15.00;9.15;;;17.80;99.90;;;;;;5031476;28;20466;-70
2021/09/08 02:39:03;;;;;;;17.70;9.10;;;17.70;99.90;;;;;;5032272;28;20082;-70
2021/09/08 02:41:29;;;;;;;14.10;9.00;;;17.70;99.90;;;;;;5032017;28;20470;-69
2021/09/08 02:43:54;;;;;;;16.13;8.70;;;17.70;99.90;;;;;;5032118;28;20029;-70
2021/09/08 02:46:20;;;;;;;14.90;8.68;;;17.60;99.90;;;;;;5032050;28;20025;-71
2021/09/08 02:48:46;;;;;;;15.75;8.82;;;17.60;99.90;;;;;;5030489;28;20116;-70
2021/09/08 02:51:12;;;;;;;13.27;8.60;;;17.60;99.90;;;;;;5031628;28;20124;-70
2021/09/08 02:53:37;;;;;;;13.98;8.02;;;17.50;99.90;;;;;;5031913;28;20033;-71
2021/09/08 02:56:03;;;;;;;13.73;8.45;;;17.50;99.90;;;;;;5031840;28;20121;-70
2021/09/08 02:58:29;;;;;;;14.88;9.10;;;17.50;99.90;;;;;;5031793;28;20022;-71
2021/09/08 03:00:55;;;;;;;16.42;8.60;;;17.50;99.90;;;;;;5030935;28;20030;-70
2021/09/08 03:03:21;;;;;;;17.65;8.98;;;17.40;99.90;;;;;;5031473;28;20037;-70
2021/09/08 03:05:48;;;;;;;15.73;8.95;;;17.40;99.90;;;;;;5031899;28;20025;-72
2021/09/08 03:08:14;;;;;;;15.15;8.75;;;17.30;99.90;;;;;;5029562;28;20033;-71
2021/09/08 03:10:41;;;;;;;14.02;8.80;;;17.30;99.90;;;;;;5028713;28;20041;-70
2021/09/08 03:13:06;;;;;;;17.33;9.05;;;17.20;99.90;;;;;;5046546;28;20037;-71
2021/09/08 03:15:32;;;;;;;14.32;8.65;;;17.30;99.90;;;;;;5046976;28;20048;-71
2021/09/08 03:17:58;;;;;;;16.23;9.50;;;17.20;99.90;;;;;;5063181;28;20029;-70
2021/09/08 03:20:24;;;;;;;18.00;8.60;;;17.20;99.90;;;;;;5031480;28;20030;-70
2021/09/08 03:22:49;;;;;;;13.70;8.38;;;17.20;99.90;;;;;;5031432;28;20653;-71
2021/09/08 03:25:15;;;;;;;16.38;8.77;;;17.10;99.90;;;;;;5031433;28;20103;-71
2021/09/08 03:27:41;;;;;;;12.38;8.57;;;17.10;99.90;;;;;;5029928;28;20406;-71
2021/09/08 03:30:08;;;;;;;19.15;9.10;;;17.10;99.90;;;;;;5031466;28;20111;-71
2021/09/08 03:32:34;;;;;;;15.93;9.40;;;17.10;99.90;;;;;;5031231;28;20040;-70
2021/09/08 03:34:59;;;;;;;15.20;8.90;;;17.00;99.90;;;;;;5031728;28;20022;-72
2021/09/08 03:37:25;;;;;;;18.92;9.18;;;17.00;99.90;;;;;;5063798;28;20026;-71
2021/09/08 03:39:52;;;;;;;14.95;8.05;;;17.00;99.90;;;;;;5029966;28;20034;-70
2021/09/08 03:42:18;;;;;;;18.15;8.90;;;17.00;99.90;;;;;;5031834;28;20033;-70
2021/09/08 03:44:44;;;;;;;16.20;8.80;;;16.90;99.90;;;;;;5031882;28;20389;-70
2021/09/08 03:47:10;;;;;;;16.40;9.20;;;16.90;99.90;;;;;;5031885;28;20025;-70
2021/09/08 03:49:36;;;;;;;14.48;8.25;;;16.90;99.90;;;;;;5030893;28;20037;-70
2021/09/08 03:52:01;;;;;;;16.75;9.73;;;16.90;99.90;;;;;;5031510;28;20026;-70
2021/09/08 03:54:27;;;;;;;15.52;9.00;;;16.80;99.90;;;;;;5031602;28;20022;-70
2021/09/08 03:56:53;;;;;;;15.52;8.82;;;16.80;99.90;;;;;;5031859;28;20030;-70
2021/09/08 03:59:21;;;;;;;14.15;8.40;;;16.80;99.90;;;;;;5031784;28;20544;-70
2021/09/08 04:01:47;;;;;;;15.65;8.95;;;16.80;99.90;;;;;;5035553;28;20022;-70
2021/09/08 04:04:13;;;;;;;17.48;9.48;;;16.80;99.90;;;;;;5034624;28;20057;-71
2021/09/08 04:06:38;;;;;;;14.20;8.98;;;16.70;99.90;;;;;;5035138;28;20041;-70
2021/09/08 04:09:04;;;;;;;14.18;9.20;;;16.70;99.90;;;;;;5034565;28;20029;-70
2021/09/08 04:11:30;;;;;;;16.63;9.55;;;16.70;99.90;;;;;;5034896;28;20109;-71
2021/09/08 04:13:55;;;;;;;14.43;9.38;;;16.70;99.90;;;;;;5065630;28;20124;-71
2021/09/08 04:16:21;;;;;;;16.33;8.80;;;16.70;99.90;;;;;;5034804;28;20029;-70
2021/09/08 04:18:47;;;;;;;17.17;9.20;;;16.60;99.90;;;;;;5050414;28;20500;-70
2021/09/08 04:21:12;;;;;;;15.75;9.25;;;16.70;99.90;;;;;;5034665;28;20113;-70
2021/09/08 04:23:38;;;;;;;16.92;9.25;;;16.60;99.90;;;;;;5033826;28;20041;-70
2021/09/08 04:26:04;;;;;;;16.88;8.73;;;16.60;99.90;;;;;;5033631;28;20056;-70
2021/09/08 04:28:29;;;;;;;18.50;9.85;;;16.60;99.90;;;;;;5034428;28;20433;-70
2021/09/08 04:30:55;;;;;;;17.98;9.00;;;16.60;99.90;;;;;;5049530;28;20057;-70
2021/09/08 04:33:20;;;;;;;19.30;8.90;;;16.50;99.90;;;;;;5034184;28;20038;-70
2021/09/08 04:35:47;;;;;;;13.85;8.48;;;16.50;99.90;;;;;;5034058;28;20378;-70
2021/09/08 04:38:12;;;;;;;19.23;10.25;;;16.50;99.90;;;;;;5034528;28;20095;-71
2021/09/08 04:40:38;;;;;;;20.88;9.43;;;16.50;99.90;;;;;;5049066;28;20124;-70
2021/09/08 04:43:03;;;;;;;18.85;9.88;;;16.40;99.90;;;;;;5034403;28;20082;-70
2021/09/08 04:45:29;;;;;;;19.95;9.98;;;16.40;99.90;;;;;;5048984;28;20029;-70
2021/09/08 04:47:55;;;;;;;19.85;10.68;;;16.40;99.90;;;;;;5033719;28;20029;-70
2021/09/08 04:50:20;;;;;;;19.63;10.40;;;16.40;99.90;;;;;;5034133;28;20029;-71
2021/09/08 04:52:46;;;;;;;19.75;10.57;;;16.30;99.90;;;;;;5049154;28;20382;-71
2021/09/08 04:55:12;;;;;;;21.10;10.98;;;16.40;99.90;;;;;;5033749;28;20037;-70
2021/09/08 04:57:37;;;;;;;17.63;9.63;;;16.40;99.90;;;;;;5033791;28;20025;-71
2021/09/08 05:00:05;;;;;;;15.30;9.70;;;16.40;99.90;;;;;;5034147;28;20021;-71
2021/09/08 05:02:30;;;;;;;18.45;9.50;;;16.40;99.90;;;;;;5033948;28;20057;-71
2021/09/08 05:04:56;;;;;;;19.55;9.80;;;16.30;99.90;;;;;;5033485;28;20049;-70
2021/09/08 05:07:21;;;;;;;18.60;10.43;;;16.30;99.90;;;;;;5033778;28;20036;-71
2021/09/08 05:09:47;;;;;;;18.75;10.10;;;16.30;99.90;;;;;;5048660;28;20033;-72
2021/09/08 05:12:13;;;;;;;14.38;9.32;;;16.30;99.90;;;;;;5033848;28;20033;-73
2021/09/08 05:14:38;;;;;;;17.38;10.38;;;16.30;99.90;;;;;;5033937;28;20402;-73
2021/09/08 05:17:05;;;;;;;16.05;9.60;;;16.30;99.90;;;;;;5033030;28;20033;-72
2021/09/08 05:19:32;;;;;;;19.42;10.48;;;16.30;99.90;;;;;;5034232;28;20470;-73
2021/09/08 05:21:58;;;;;;;17.90;9.52;;;16.30;99.90;;;;;;5034645;28;20025;-72
2021/09/08 05:24:24;;;;;;;17.73;10.40;;;16.30;99.90;;;;;;5033770;28;20065;-72
2021/09/08 05:26:50;;;;;;;19.48;10.73;;;16.30;99.90;;;;;;5032696;28;20486;-72
2021/09/08 05:29:16;;;;;;;21.08;9.88;;;16.30;99.90;;;;;;5034012;28;20086;-73
2021/09/08 05:31:42;;;;;;;19.67;10.57;;;16.30;99.90;;;;;;5036070;28;20367;-72
2021/09/08 05:34:07;;;;;;;15.50;9.38;;;16.40;99.90;;;;;;5035416;28;20129;-73
2021/09/08 05:36:33;;;;;;;17.95;9.40;;;16.30;99.90;;;;;;5049552;28;20112;-73
2021/09/08 05:38:59;;;;;;;20.15;11.00;;;16.40;99.90;;;;;;5034606;28;20040;-73
2021/09/08 05:41:24;;;;;;;20.00;10.93;;;16.40;99.90;;;;;;5034945;28;20432;-73
2021/09/08 05:43:50;;;;;;;22.85;11.02;;;16.40;99.90;;;;;;5035095;28;20032;-73
2021/09/08 05:46:16;;;;;;;16.85;9.90;;;16.50;99.90;;;;;;5036323;28;20033;-73
2021/09/08 05:48:42;;;;;;;20.42;9.43;;;16.50;99.90;;;;;;5044989;28;20029;-73
2021/09/08 05:51:07;;;;;;;19.88;10.27;;;16.50;99.90;;;;;;5051880;28;20021;-73
2021/09/08 05:53:33;;;;;;;18.10;10.07;;;16.60;99.90;;;;;;5050835;28;20493;-73
2021/09/08 05:55:58;;;;;;;22.35;10.50;;;16.60;99.90;;;;;;5051513;28;20095;-73
2021/09/08 05:58:24;;;;;;;19.05;10.93;;;16.60;99.90;;;;;;5054187;28;20030;-73
2021/09/08 06:00:51;;;;;;;18.95;10.27;;;16.70;99.90;;;;;;5054282;28;20045;-73
2021/09/08 06:03:16;;;;;;;16.42;10.13;;;16.80;99.90;;;;;;5054304;28;20029;-73
2021/09/08 06:05:42;;;;;;;17.98;10.15;;;16.80;99.90;;;;;;5054095;28;20443;-73
2021/09/08 06:08:07;;;;;;;22.42;10.52;;;16.80;99.90;;;;;;5053746;28;20009;-73
2021/09/08 06:10:33;;;;;;;22.40;10.52;;;16.90;99.90;;;;;;5053869;28;20081;-73
2021/09/08 06:12:59;;;;;;;22.30;11.48;;;17.00;99.90;;;;;;5054386;28;20036;-73
2021/09/08 06:15:25;;;;;;;20.77;10.80;;;17.00;99.90;;;;;;5054042;28;20029;-73
2021/09/08 06:17:50;;;;;;;21.95;11.15;;;17.10;99.90;;;;;;5054450;28;20014;-73
2021/09/08 06:20:16;;;;;;;18.30;10.93;;;17.20;99.90;;;;;;5055030;28;20025;-73
2021/09/08 06:22:42;;;;;;;22.85;10.55;;;17.30;99.90;;;;;;5049398;28;20382;-73
2021/09/08 06:25:09;;;;;;;19.42;10.23;;;17.40;99.90;;;;;;5051586;28;20037;-74
2021/09/08 06:27:34;;;;;;;21.35;10.25;;;17.40;99.90;;;;;;5052486;28;20044;-72
2021/09/08 06:30:00;;;;;;;21.85;11.65;;;17.50;99.90;;;;;;5050302;28;20033;-74
2021/09/08 06:32:26;;;;;;;23.80;10.60;;;17.60;99.90;;;;;;5049993;28;20041;-73
2021/09/08 06:34:51;;;;;;;23.48;10.82;;;17.70;99.90;;;;;;5049957;28;20033;-73
2021/09/08 06:37:17;;;;;;;17.67;10.73;;;17.80;99.90;;;;;;5050326;28;20025;-72
2021/09/08 06:39:43;;;;;;;16.55;10.68;;;17.80;99.90;;;;;;5048889;28;20330;-74
2021/09/08 06:42:09;;;;;;;22.85;10.00;;;17.90;99.90;;;;;;5047474;28;20018;-73
2021/09/08 06:44:35;;;;;;;16.58;9.65;;;18.10;99.90;;;;;;5048219;28;20077;-72
2021/09/08 06:47:00;;;;;;;20.63;10.43;;;18.20;99.90;;;;;;5049402;28;20089;-72
2021/09/08 06:49:26;;;;;;;17.67;10.45;;;18.40;99.90;;;;;;5047785;28;20029;-72
2021/09/08 06:51:51;;;;;;;20.13;11.55;;;18.50;99.90;;;;;;5046596;28;20100;-72
2021/09/08 06:54:17;;;;;;;19.27;10.73;;;18.60;99.90;;;;;;5047502;28;20049;-73
2021/09/08 06:56:43;;;;;;;22.25;11.63;;;18.70;99.90;;;;;;5048864;28;20026;-72
2021/09/08 06:59:09;;;;;;;18.00;9.70;;;18.90;99.90;;;;;;5046648;28;20021;-72
2021/09/08 07:01:34;;;;;;;19.10;9.63;;;19.10;99.90;;;;;;5039430;28;20278;-73
2021/09/08 07:04:00;;;;;;;19.02;9.85;;;19.20;99.90;;;;;;5034708;28;20486;-73
2021/09/08 07:06:26;;;;;;;19.17;9.98;;;19.40;99.90;;;;;;5033671;28;20104;-72
2021/09/08 07:08:53;;;;;;;20.08;11.05;;;19.50;99.90;;;;;;5031408;28;20028;-72
2021/09/08 07:11:20;;;;;;;18.65;9.73;;;19.70;99.90;;;;;;5033471;28;20026;-72
2021/09/08 07:13:46;;;;;;;21.55;10.88;;;19.70;99.90;;;;;;5033249;28;20109;-73
2021/09/08 07:16:12;;;;;;;17.63;10.15;;;19.80;99.90;;;;;;5031949;28;20056;-71
2021/09/08 07:18:37;;;;;;;17.77;9.98;;;19.90;99.90;;;;;;5033072;28;20022;-72
2021/09/08 07:21:03;;;;;;;19.55;10.07;;;19.90;99.90;;;;;;5032257;28;20030;-73
2021/09/08 07:23:29;;;;;;;18.80;9.55;;;20.10;99.90;;;;;;5032851;28;20632;-72
2021/09/08 07:25:55;;;;;;;18.25;9.63;;;20.10;99.90;;;;;;5029625;28;20038;-73
2021/09/08 07:28:22;;;;;;;18.13;10.23;;;20.20;99.90;;;;;;5023371;28;20026;-72
2021/09/08 07:30:53;;;;;;;16.88;9.93;;;20.30;99.90;;;;;;5019517;28;20053;-72
2021/09/08 07:33:19;;;;;;;14.45;9.05;;;20.40;99.90;;;;;;5034637;28;20109;-73
2021/09/08 07:35:47;;;;;;;14.98;9.38;;;20.60;99.90;;;;;;5031588;28;20044;-73
2021/09/08 07:38:13;;;;;;;18.15;9.38;;;20.70;99.90;;;;;;5034284;28;20041;-73
2021/09/08 07:40:39;;;;;;;23.33;10.18;;;20.70;99.90;;;;;;5032423;28;20021;-73
2021/09/08 07:43:04;;;;;;;19.02;9.82;;;20.90;99.90;;;;;;5036086;28;20021;-73
2021/09/08 07:45:30;;;;;;;18.23;10.50;;;21.00;99.90;;;;;;5034309;28;20528;-74
2021/09/08 07:47:56;;;;;;;17.92;9.30;;;21.10;99.90;;;;;;5035177;28;20042;-76
2021/09/08 07:50:21;;;;;;;18.35;10.18;;;21.10;99.90;;;;;;5047881;28;20033;-74
2021/09/08 07:52:47;;;;;;;18.52;9.55;;;21.20;99.90;;;;;;5035287;28;20172;-74
2021/09/08 07:55:13;;;;;;;18.40;9.90;;;21.30;99.90;;;;;;5036049;28;20446;-74
2021/09/08 07:57:39;;;;;;;17.13;9.10;;;21.40;99.90;;;;;;5035707;28;21745;-74
2021/09/08 08:00:06;;;;;;;20.25;9.65;;;21.50;99.90;;;;;;5033781;28;20033;-74
2021/09/08 08:02:42;;;;;;;13.80;8.67;;;21.60;99.90;;;;;;5032252;28;20043;-74
2021/09/08 08:05:08;;;;;;;16.38;10.05;;;21.60;99.90;;;;;;5065966;28;20338;-73
2021/09/08 08:07:33;;;;;;;18.90;9.02;;;21.70;99.90;;;;;;5036531;28;20486;-73
2021/09/08 08:09:59;;;;;;;17.45;8.95;;;21.80;99.90;;;;;;5036172;28;20133;-74
2021/09/08 08:12:28;;;;;;;15.90;9.30;;;22.00;99.90;;;;;;5034463;28;20041;-75
2021/09/08 08:14:54;;;;;;;15.35;8.60;;;22.10;99.90;;;;;;5035837;28;20029;-74
2021/09/08 08:17:19;;;;;;;13.93;8.85;;;22.20;99.90;;;;;;5035566;28;20520;-74
2021/09/08 08:19:47;;;;;;;15.25;10.23;;;22.30;99.90;;;;;;5035119;28;20431;-73
2021/09/08 08:22:14;;;;;;;18.33;9.13;;;22.40;99.90;;;;;;5036152;28;20021;-73
2021/09/08 08:24:39;;;;;;;20.25;8.65;;;22.40;99.90;;;;;;5035565;28;20041;-73
2021/09/08 08:27:05;;;;;;;16.65;8.30;;;22.50;99.90;;;;;;5035923;28;20030;-74
2021/09/08 08:29:31;;;;;;;19.08;9.35;;;22.60;99.90;;;;;;5033260;28;20117;-73
2021/09/08 08:31:56;;;;;;;14.57;8.52;;;22.70;99.90;;;;;;5035336;28;20029;-74
2021/09/08 08:34:22;;;;;;;17.00;8.90;;;22.80;99.90;;;;;;5034348;28;20029;-74
2021/09/08 08:36:48;;;;;;;15.88;8.75;;;22.80;99.90;;;;;;5035160;28;20474;-73
2021/09/08 08:39:14;;;;;;;12.13;7.57;;;23.00;99.90;;;;;;5035313;28;20030;-73
2021/09/08 08:41:39;;;;;;;22.08;8.82;;;23.00;99.90;;;;;;5034551;28;20056;-73
2021/09/08 08:44:06;;;;;;;22.73;9.45;;;23.00;99.90;;;;;;5034638;28;20071;-76
2021/09/08 08:46:32;;;;;;;16.07;8.07;;;23.10;99.90;;;;;;5034269;28;20505;-73
2021/09/08 08:48:58;;;;;;;17.58;9.65;;;23.20;99.90;;;;;;5043909;28;20025;-73
2021/09/08 08:51:24;;;;;;;16.33;8.60;;;23.30;99.90;;;;;;5043307;28;20029;-73
2021/09/08 08:53:50;;;;;;;16.80;9.52;;;23.40;99.90;;;;;;5035292;28;20053;-74
2021/09/08 08:56:16;;;;;;;16.55;8.48;;;23.60;99.90;;;;;;5033659;28;20048;-73
2021/09/08 08:58:41;;;;;;;18.15;9.60;;;23.70;99.90;;;;;;5035343;28;20067;-73
2021/09/08 09:04:13;;;;;;;16.23;8.77;;;23.70;99.90;;;;;;5296039;23;20048;-74
2021/09/08 09:06:46;;;;;;;14.60;9.27;;;23.70;99.90;;;;;;4920829;29;20024;-75
2021/09/08 09:09:16;;;;;;;19.23;9.40;;;23.90;99.90;;;;;;4919162;29;20527;-73
2021/09/08 09:11:45;;;;;;;15.98;8.45;;;23.90;99.90;;;;;;4919292;29;20097;-73
2021/09/08 09:14:12;;;;;;;18.00;8.88;;;24.00;99.90;;;;;;4919588;29;20036;-74
2021/09/08 09:16:41;;;;;;;;;;;24.10;99.90;;;;;;4918735;29;20477;-74
2021/09/08 09:19:11;;;;;;;16.38;8.48;;;24.20;99.90;;;;;;4919566;29;19911;-76
2021/09/08 09:21:38;;;;;;;18.08;9.60;;;24.30;99.90;;;;;;4918626;29;20028;-75
2021/09/08 09:24:06;;;;;;;19.60;9.02;;;24.40;99.90;;;;;;4920208;29;20079;-75
2021/09/08 09:26:35;;;;;;;15.90;8.68;;;24.50;99.90;;;;;;4918838;29;20048;-75
2021/09/08 09:29:12;;;;;;;12.82;8.43;;;24.60;99.90;;;;;;4918100;29;20040;-76
2021/09/08 09:31:54;;;;;;;15.70;8.18;;;24.60;99.90;;;;;;4918353;29;20040;-73
2021/09/08 09:34:21;;;;;;;15.23;8.50;;;24.80;99.90;;;;;;4917555;29;20113;-75
2021/09/08 09:36:52;;;;;;;12.05;7.85;;;24.80;99.90;;;;;;4917098;29;20062;-73
2021/09/08 09:39:19;;;;;;;17.75;8.27;;;25.00;99.90;;;;;;4917151;29;20477;-74
2021/09/08 09:41:44;;;;;;;13.45;8.52;;;25.10;99.90;;;;;;4918583;29;20052;-75
2021/09/08 09:44:15;;;;;;;15.85;7.95;;;25.10;99.90;;;;;;4917763;29;20500;-75
2021/09/08 09:46:43;;;;;;;17.20;8.38;;;25.20;99.90;;;;;;4918474;29;20036;-75
2021/09/08 09:49:10;;;;;;;17.92;8.50;;;25.30;99.90;;;;;;4918836;29;20043;-76
2021/09/08 09:51:36;;;;;;;12.20;7.57;;;25.40;99.90;;;;;;4917420;29;20044;-75
2021/09/08 09:54:02;;;;;;;14.35;8.27;;;25.40;99.90;;;;;;4918715;29;20099;-76
2021/09/08 09:56:29;;;;;;;12.18;7.57;;;25.50;99.90;;;;;;4917996;29;20526;-76
2021/09/08 09:58:55;;;;;;;13.73;7.70;;;25.60;99.90;;;;;;4917966;29;20031;-74
2021/09/08 10:01:21;;;;;;;16.35;7.15;;;25.70;99.90;;;;;;4918771;29;20024;-75
2021/09/08 10:03:47;;;;;;;11.52;7.20;;;25.70;99.90;;;;;;4906888;29;20044;-75
2021/09/08 10:06:15;;;;;;;10.50;7.37;;;25.90;99.90;;;;;;4896890;29;20112;-75
2021/09/08 10:08:47;;;;;;;14.10;7.45;;;26.00;99.90;;;;;;4897186;29;20048;-74
2021/09/08 10:11:26;;;;;;;12.32;6.93;;;26.00;99.90;;;;;;4898476;29;20032;-75
2021/09/08 10:13:59;;;;;;;11.77;7.07;;;26.10;99.90;;;;;;4898060;29;20481;-74
2021/09/08 10:16:27;;;;;;;10.73;6.57;;;26.10;99.90;;;;;;4912475;29;20511;-74
2021/09/08 10:18:53;;;;;;;12.43;6.85;;;26.30;99.90;;;;;;4898915;29;20025;-75
2021/09/08 10:21:19;;;;;;;12.57;7.30;;;26.40;99.90;;;;;;4898438;29;20560;-74
2021/09/08 10:24:03;;;;;;;12.90;6.25;;;26.40;99.90;;;;;;4898293;29;20024;-74
2021/09/08 10:26:32;;;;;;;15.05;7.57;;;26.50;99.90;;;;;;4897293;29;20033;-74
2021/09/08 10:29:07;;;;;;;12.65;6.72;;;26.60;99.90;;;;;;4898847;29;20040;-73
2021/09/08 10:31:50;;;;;;;15.13;6.50;;;26.70;99.90;;;;;;4898411;29;20087;-74
2021/09/08 10:34:16;;;;;;;8.65;6.07;;;26.80;99.90;;;;;;4898814;29;20068;-74
2021/09/08 10:36:43;;;;;;;11.77;5.90;;;27.00;99.90;;;;;;4898491;29;20084;-74
2021/09/08 10:39:15;;;;;;;11.45;6.50;;;27.10;99.90;;;;;;4912899;29;20068;-74
2021/09/08 10:41:44;;;;;;;8.48;5.65;;;27.20;99.90;;;;;;4899101;29;20024;-74
2021/09/08 10:44:11;;;;;;;9.48;6.78;;;27.30;99.40;;;;;;4899077;29;20032;-74
2021/09/08 10:46:56;;;;;;;8.68;5.95;;;27.30;98.80;;;;;;4897336;29;20040;-74
2021/09/08 10:49:38;;;;;;;7.03;5.35;;;27.30;99.60;;;;;;4912489;29;20507;-74
2021/09/08 10:52:11;;;;;;;9.10;6.18;;;27.30;99.10;;;;;;4897977;29;20033;-74
2021/09/08 10:54:58;;;;;;;10.35;5.88;;;27.40;99.70;;;;;;4897392;29;20029;-74
2021/09/08 10:57:44;;;;;;;15.48;6.00;;;27.50;98.80;;;;;;4880662;29;20033;-74
2021/09/08 11:00:21;;;;;;;8.93;5.65;;;27.50;98.60;;;;;;4895895;29;20032;-75
2021/09/08 11:02:48;;;;;;;8.43;5.65;;;27.60;98.50;;;;;;4898153;29;20103;-74
2021/09/08 11:05:14;;;;;;;8.63;5.90;;;27.80;98.10;;;;;;4896819;29;20047;-76
2021/09/08 11:07:40;;;;;;;10.60;5.55;;;27.90;96.90;;;;;;4900127;29;20044;-76
2021/09/08 11:10:07;;;;;;;6.90;5.00;;;27.90;97.40;;;;;;4900956;29;20045;-77
2021/09/08 11:12:54;;;;;;;7.35;5.22;;;27.90;97.90;;;;;;4902830;29;20032;-77
2021/09/08 11:15:29;;;;;;;;;;;28.10;98.00;;;;;;4902968;29;20056;-76
2021/09/08 11:17:55;;;;;;;7.85;5.13;;;28.10;97.30;;;;;;4902463;29;19912;-76
2021/09/08 11:20:21;;;;;;;11.73;5.10;;;28.20;96.70;;;;;;4902101;29;20048;-76
2021/09/08 11:23:00;;;;;;;8.43;5.85;;;28.20;96.60;;;;;;4901714;29;20056;-77
2021/09/08 11:25:30;;;;;;;7.50;4.82;;;28.10;97.00;;;;;;4901621;29;20029;-76
2021/09/08 11:27:55;;;;;;;7.82;5.45;;;28.10;96.90;;;;;;4917008;29;20040;-75
2021/09/08 11:30:21;;;;;;;8.30;5.25;;;28.10;96.80;;;;;;4901707;29;20563;-76
2021/09/08 11:33:04;;;;;;;8.40;5.25;;;28.10;96.80;;;;;;4901878;29;20028;-75
2021/09/08 11:35:47;;;;;;;6.50;4.70;;;28.20;96.40;;;;;;4901580;29;20036;-75
2021/09/08 11:38:33;;;;;;;15.45;5.10;;;28.30;95.80;;;;;;4902072;29;20056;-75
2021/09/08 11:41:04;;;;;;;8.23;5.47;;;28.30;95.80;;;;;;4916026;29;20040;-75
2021/09/08 11:43:49;;;;;;;10.77;4.82;;;28.40;95.50;;;;;;4902224;29;20031;-77
2021/09/08 11:46:31;;;;;;;8.70;4.82;;;28.50;95.80;;;;;;4915697;29;20044;-75
2021/09/08 11:49:08;;;;;;;5.78;4.55;;;28.50;96.20;;;;;;4900176;29;20037;-74
2021/09/08 11:51:35;;;;;;;;;;;28.60;95.90;;;;;;4901716;29;20028;-75
2021/09/08 11:54:03;;;;;;;9.00;5.15;;;28.70;95.50;;;;;;4900678;29;19923;-74
2021/09/08 11:56:29;;;;;;;6.93;4.30;;;28.80;95.40;;;;;;4898756;29;20031;-74
2021/09/08 11:58:56;;;;;;;4.85;4.10;;;28.80;94.80;;;;;;4913724;29;20033;-74
2021/09/08 12:01:22;;;;;;;5.72;4.53;;;28.90;94.20;;;;;;4914709;29;20043;-74
2021/09/08 12:03:52;;;;;;;11.37;4.47;;;28.90;94.30;;;;;;4898616;29;20074;-74
2021/09/08 12:06:21;;;;;;;4.75;3.67;;;28.90;94.10;;;;;;4898899;29;20032;-74
2021/09/08 12:09:06;;;;;;;7.55;4.72;;;28.70;94.70;;;;;;4900661;29;20044;-74
2021/09/08 12:11:36;;;;;;;4.80;3.80;;;28.70;95.40;;;;;;4901308;29;20051;-74
2021/09/08 12:14:25;;;;;;;9.30;4.93;;;28.80;94.80;;;;;;4899535;29;20033;-74
2021/09/08 12:17:00;;;;;;;7.30;4.15;;;29.00;93.60;;;;;;4902850;29;20408;-74
2021/09/08 12:19:31;;;;;;;5.35;3.65;;;29.00;93.00;;;;;;4898955;29;20067;-74
2021/09/08 12:22:20;;;;;;;7.13;4.28;;;29.00;92.90;;;;;;4899490;29;20040;-74
2021/09/08 12:24:52;;;;;;;4.88;4.18;;;28.90;93.50;;;;;;4900422;29;20043;-74
2021/09/08 12:27:39;;;;;;;11.40;5.40;;;29.10;93.70;;;;;;4900682;29;20040;-74
2021/09/08 12:30:14;;;;;;;10.52;5.65;;;29.00;93.90;;;;;;4898036;29;20025;-73
2021/09/08 12:32:53;;;;;;;9.27;5.65;;;29.00;94.00;;;;;;4899615;29;20501;-73
2021/09/08 12:35:49;;;;;;;12.25;5.60;;;29.10;94.30;;;;;;4899508;29;20044;-74
2021/09/08 12:38:41;;;;;;;13.67;6.27;;;29.20;94.20;;;;;;4903725;29;20383;-74
2021/09/08 12:41:27;;;;;;;8.45;6.05;;;29.20;94.10;;;;;;4902702;29;20393;-74
2021/09/08 12:43:52;;;;;;;8.40;5.90;;;29.30;94.20;;;;;;4901117;29;20029;-73
2021/09/08 12:46:37;;;;;;;8.05;6.30;;;29.20;94.60;;;;;;4900985;29;20029;-74